Hauptseite
METAR-TAF:

METAR-TAF

Flughäfen :

Hahn, Deutschland

Flughafen Frankfurt-Hahn

Breite: 49-57N, Länge: 007-16E, Höhe: 491 m

Beobachtung

Neuester Wetterbericht von vor 21 Minuten, um 11:20 UTC
Wind 15 kt aus Ost, Böen bis zu 25 kt
Temperatur 11°C
Luftfeuchtigkeit 43%
Luftdruck 1025 hPa
Sichtweite 10 km oder mehr
keine Wolken unter 1500 m und keine Kumulonimbus oder Gewitterwolken

METAR: EDFH 251120Z 08015G25KT CAVOK 11/M01 Q1025

Zeit: 12:41 (11:41 UTC)

Prognose

Neuester Wetterbericht von vor 41 Minuten, um 11:00 UTC
Gültige Prognose vom 25 um 12 UTC bis 26 um 12 UTC
Wind 15 kt aus Ost, Böen bis zu 25 kt
Sichtweite 10 km oder mehr
keine Wolken unter 1500 m und keine Kumulonimbus oder Gewitterwolken
Übergehend zu
vom 25 um 20 UTC bis 25 um 23 UTC
Wind 10 kt aus Ost

TAF: EDFH 251100Z 2512/2612 09015G25KT CAVOK BECMG 2520/2523 09010KT

Wetterbeobachtungen und Prognosen von mehr als 4000 Flughäfen (METAR und TAF Bericht).

Die verfügbaren Stationen werden durch gelbe und rote Markierungen auf der Karte dargestellt.

Führen Sie die Maus auf sie, um den Namen der Station zu sehen.

Darauf klicken, um die Beobachtung von Wetterbeobachtungen und Prognosen zu sehen.

Um die Karte zu ändern : klicken Sie auf den grünen Tasten mit einem schwarzen Kreuz Zum Vergrößern, auf den grünen Button mit einem Gedankenstrich zu verkleinern, oder auf die grünen Pfeile für benachbarte Karten.


METAR-TAF: